sensor_id;sensor_type;location;lat;lon;timestamp;P1;durP1;ratioP1;P2;durP2;ratioP2
422;SDS011;198;48.752;9.180;2024-01-10T00:00:10;20.80;;;8.27;;
422;SDS011;198;48.752;9.180;2024-01-10T00:02:36;30.47;;;9.50;;
422;SDS011;198;48.752;9.180;2024-01-10T00:05:01;20.03;;;8.03;;
422;SDS011;198;48.752;9.180;2024-01-10T00:07:28;30.07;;;8.20;;
422;SDS011;198;48.752;9.180;2024-01-10T00:09:54;23.77;;;8.53;;
422;SDS011;198;48.752;9.180;2024-01-10T00:12:20;27.90;;;9.07;;
422;SDS011;198;48.752;9.180;2024-01-10T00:14:46;27.63;;;10.73;;
422;SDS011;198;48.752;9.180;2024-01-10T00:17:11;23.83;;;8.30;;
422;SDS011;198;48.752;9.180;2024-01-10T00:19:37;22.17;;;7.00;;
422;SDS011;198;48.752;9.180;2024-01-10T00:22:02;22.83;;;8.13;;
422;SDS011;198;48.752;9.180;2024-01-10T00:24:28;27.30;;;8.90;;
422;SDS011;198;48.752;9.180;2024-01-10T00:26:54;23.80;;;8.73;;
422;SDS011;198;48.752;9.180;2024-01-10T00:29:20;24.73;;;9.10;;
422;SDS011;198;48.752;9.180;2024-01-10T00:31:45;22.00;;;8.30;;
422;SDS011;198;48.752;9.180;2024-01-10T00:34:11;26.53;;;9.10;;
422;SDS011;198;48.752;9.180;2024-01-10T00:36:36;21.70;;;8.37;;
422;SDS011;198;48.752;9.180;2024-01-10T00:39:02;28.63;;;8.80;;
422;SDS011;198;48.752;9.180;2024-01-10T00:41:29;24.07;;;8.00;;
422;SDS011;198;48.752;9.180;2024-01-10T00:43:54;22.37;;;8.37;;
422;SDS011;198;48.752;9.180;2024-01-10T00:46:20;24.30;;;8.40;;
422;SDS011;198;48.752;9.180;2024-01-10T00:48:45;21.47;;;8.90;;
422;SDS011;198;48.752;9.180;2024-01-10T00:51:11;22.67;;;9.30;;
422;SDS011;198;48.752;9.180;2024-01-10T00:53:36;20.00;;;8.40;;
422;SDS011;198;48.752;9.180;2024-01-10T00:56:03;20.13;;;8.40;;
422;SDS011;198;48.752;9.180;2024-01-10T00:58:30;25.07;;;10.47;;
422;SDS011;198;48.752;9.180;2024-01-10T01:00:55;26.97;;;8.07;;
422;SDS011;198;48.752;9.180;2024-01-10T01:03:21;27.53;;;9.40;;
422;SDS011;198;48.752;9.180;2024-01-10T01:05:46;29.00;;;10.10;;
422;SDS011;198;48.752;9.180;2024-01-10T01:08:12;23.97;;;8.87;;
422;SDS011;198;48.752;9.180;2024-01-10T01:10:37;30.10;;;8.90;;
422;SDS011;198;48.752;9.180;2024-01-10T01:13:03;34.97;;;8.67;;
422;SDS011;198;48.752;9.180;2024-01-10T01:15:28;34.10;;;10.47;;
422;SDS011;198;48.752;9.180;2024-01-10T01:17:54;30.97;;;11.07;;
422;SDS011;198;48.752;9.180;2024-01-10T01:20:19;24.43;;;9.23;;
422;SDS011;198;48.752;9.180;2024-01-10T01:22:45;28.47;;;9.40;;
422;SDS011;198;48.752;9.180;2024-01-10T01:25:10;24.77;;;8.20;;
422;SDS011;198;48.752;9.180;2024-01-10T01:27:36;18.93;;;8.40;;
422;SDS011;198;48.752;9.180;2024-01-10T01:30:01;25.60;;;8.97;;
422;SDS011;198;48.752;9.180;2024-01-10T01:32:27;28.50;;;8.60;;
422;SDS011;198;48.752;9.180;2024-01-10T01:34:53;36.60;;;9.43;;
422;SDS011;198;48.752;9.180;2024-01-10T01:37:18;30.97;;;10.80;;
422;SDS011;198;48.752;9.180;2024-01-10T01:39:44;33.67;;;10.90;;
422;SDS011;198;48.752;9.180;2024-01-10T01:42:09;22.83;;;9.67;;
422;SDS011;198;48.752;9.180;2024-01-10T01:44:35;27.53;;;8.73;;
422;SDS011;198;48.752;9.180;2024-01-10T01:47:01;17.83;;;8.60;;
422;SDS011;198;48.752;9.180;2024-01-10T01:49:26;21.70;;;9.33;;
422;SDS011;198;48.752;9.180;2024-01-10T01:51:53;27.03;;;9.70;;
422;SDS011;198;48.752;9.180;2024-01-10T01:54:19;43.10;;;10.20;;
422;SDS011;198;48.752;9.180;2024-01-10T01:56:45;38.60;;;12.97;;
422;SDS011;198;48.752;9.180;2024-01-10T01:59:11;33.27;;;10.93;;
422;SDS011;198;48.752;9.180;2024-01-10T02:01:37;30.40;;;10.30;;
422;SDS011;198;48.752;9.180;2024-01-10T02:04:02;30.10;;;8.70;;
422;SDS011;198;48.752;9.180;2024-01-10T02:06:28;34.40;;;11.07;;
422;SDS011;198;48.752;9.180;2024-01-10T02:08:55;30.57;;;10.10;;
422;SDS011;198;48.752;9.180;2024-01-10T02:11:21;31.37;;;10.17;;
422;SDS011;198;48.752;9.180;2024-01-10T02:13:48;36.73;;;11.60;;
422;SDS011;198;48.752;9.180;2024-01-10T02:16:14;21.73;;;9.10;;
422;SDS011;198;48.752;9.180;2024-01-10T02:18:40;34.77;;;11.63;;
422;SDS011;198;48.752;9.180;2024-01-10T02:21:05;24.23;;;9.53;;
422;SDS011;198;48.752;9.180;2024-01-10T02:23:31;28.83;;;10.30;;
422;SDS011;198;48.752;9.180;2024-01-10T02:25:56;29.77;;;11.40;;
422;SDS011;198;48.752;9.180;2024-01-10T02:28:22;35.33;;;9.60;;
422;SDS011;198;48.752;9.180;2024-01-10T02:30:50;35.37;;;11.53;;
422;SDS011;198;48.752;9.180;2024-01-10T02:33:17;25.87;;;9.77;;
422;SDS011;198;48.752;9.180;2024-01-10T02:35:43;23.03;;;9.20;;
422;SDS011;198;48.752;9.180;2024-01-10T02:38:08;26.73;;;10.00;;
422;SDS011;198;48.752;9.180;2024-01-10T02:40:34;26.00;;;10.40;;
422;SDS011;198;48.752;9.180;2024-01-10T02:42:59;29.47;;;9.90;;
422;SDS011;198;48.752;9.180;2024-01-10T02:45:25;37.50;;;10.93;;
422;SDS011;198;48.752;9.180;2024-01-10T02:47:50;31.77;;;11.13;;
422;SDS011;198;48.752;9.180;2024-01-10T02:50:16;30.37;;;11.03;;
422;SDS011;198;48.752;9.180;2024-01-10T02:52:41;27.93;;;11.10;;
422;SDS011;198;48.752;9.180;2024-01-10T02:55:07;32.70;;;11.10;;
422;SDS011;198;48.752;9.180;2024-01-10T02:57:33;34.77;;;11.03;;
422;SDS011;198;48.752;9.180;2024-01-10T02:59:58;30.93;;;11.30;;
422;SDS011;198;48.752;9.180;2024-01-10T03:02:24;32.83;;;10.60;;
422;SDS011;198;48.752;9.180;2024-01-10T03:04:49;30.47;;;9.80;;
422;SDS011;198;48.752;9.180;2024-01-10T03:07:16;30.80;;;10.00;;
422;SDS011;198;48.752;9.180;2024-01-10T03:09:41;34.47;;;10.13;;
422;SDS011;198;48.752;9.180;2024-01-10T03:12:07;38.53;;;11.73;;
422;SDS011;198;48.752;9.180;2024-01-10T03:14:34;24.33;;;9.53;;
422;SDS011;198;48.752;9.180;2024-01-10T03:16:59;37.23;;;13.07;;
422;SDS011;198;48.752;9.180;2024-01-10T03:19:25;25.90;;;10.80;;
422;SDS011;198;48.752;9.180;2024-01-10T03:21:50;29.63;;;11.00;;
422;SDS011;198;48.752;9.180;2024-01-10T03:24:16;27.57;;;9.80;;
422;SDS011;198;48.752;9.180;2024-01-10T03:26:42;28.10;;;9.87;;
422;SDS011;198;48.752;9.180;2024-01-10T03:29:08;32.00;;;10.53;;
422;SDS011;198;48.752;9.180;2024-01-10T03:31:33;21.30;;;8.53;;
422;SDS011;198;48.752;9.180;2024-01-10T03:33:59;32.90;;;11.90;;
422;SDS011;198;48.752;9.180;2024-01-10T03:36:24;29.30;;;10.90;;
422;SDS011;198;48.752;9.180;2024-01-10T03:38:50;27.80;;;9.73;;
422;SDS011;198;48.752;9.180;2024-01-10T03:41:16;32.07;;;11.57;;
422;SDS011;198;48.752;9.180;2024-01-10T03:43:43;29.37;;;10.47;;
422;SDS011;198;48.752;9.180;2024-01-10T03:46:09;28.00;;;9.57;;
422;SDS011;198;48.752;9.180;2024-01-10T03:48:35;30.30;;;10.60;;
422;SDS011;198;48.752;9.180;2024-01-10T03:51:00;22.97;;;9.20;;
422;SDS011;198;48.752;9.180;2024-01-10T03:53:26;24.53;;;9.07;;
422;SDS011;198;48.752;9.180;2024-01-10T03:55:52;23.97;;;9.60;;
422;SDS011;198;48.752;9.180;2024-01-10T03:58:17;28.30;;;9.90;;
422;SDS011;198;48.752;9.180;2024-01-10T04:00:43;34.83;;;10.50;;
422;SDS011;198;48.752;9.180;2024-01-10T04:03:08;28.00;;;10.50;;
422;SDS011;198;48.752;9.180;2024-01-10T04:05:34;26.60;;;10.60;;
422;SDS011;198;48.752;9.180;2024-01-10T04:07:59;30.50;;;10.17;;
422;SDS011;198;48.752;9.180;2024-01-10T04:10:25;31.60;;;11.17;;
422;SDS011;198;48.752;9.180;2024-01-10T04:12:50;32.87;;;11.30;;
422;SDS011;198;48.752;9.180;2024-01-10T04:15:16;35.67;;;11.30;;
422;SDS011;198;48.752;9.180;2024-01-10T04:17:43;31.90;;;9.30;;
422;SDS011;198;48.752;9.180;2024-01-10T04:20:08;30.13;;;9.63;;
422;SDS011;198;48.752;9.180;2024-01-10T04:22:34;38.27;;;11.97;;
422;SDS011;198;48.752;9.180;2024-01-10T04:25:01;40.83;;;11.53;;
422;SDS011;198;48.752;9.180;2024-01-10T04:27:29;33.53;;;10.77;;
422;SDS011;198;48.752;9.180;2024-01-10T04:29:55;34.87;;;10.57;;
422;SDS011;198;48.752;9.180;2024-01-10T04:32:21;28.33;;;10.40;;
422;SDS011;198;48.752;9.180;2024-01-10T04:34:46;31.30;;;11.30;;
422;SDS011;198;48.752;9.180;2024-01-10T04:37:12;39.77;;;12.10;;
422;SDS011;198;48.752;9.180;2024-01-10T04:39:37;30.90;;;11.70;;
422;SDS011;198;48.752;9.180;2024-01-10T04:42:03;27.00;;;10.07;;
422;SDS011;198;48.752;9.180;2024-01-10T04:44:29;25.67;;;10.10;;
422;SDS011;198;48.752;9.180;2024-01-10T04:46:55;26.17;;;9.50;;
422;SDS011;198;48.752;9.180;2024-01-10T04:49:20;29.23;;;11.37;;
422;SDS011;198;48.752;9.180;2024-01-10T04:51:46;36.27;;;12.13;;
422;SDS011;198;48.752;9.180;2024-01-10T04:54:11;32.80;;;13.10;;
422;SDS011;198;48.752;9.180;2024-01-10T04:56:37;36.10;;;11.07;;
422;SDS011;198;48.752;9.180;2024-01-10T04:59:03;31.23;;;11.97;;
422;SDS011;198;48.752;9.180;2024-01-10T05:01:28;31.93;;;11.13;;
422;SDS011;198;48.752;9.180;2024-01-10T05:03:54;31.83;;;10.63;;
422;SDS011;198;48.752;9.180;2024-01-10T05:06:20;31.57;;;11.07;;
422;SDS011;198;48.752;9.180;2024-01-10T05:08:45;30.27;;;10.83;;
422;SDS011;198;48.752;9.180;2024-01-10T05:11:11;32.20;;;11.53;;
422;SDS011;198;48.752;9.180;2024-01-10T05:13:37;33.00;;;11.53;;
422;SDS011;198;48.752;9.180;2024-01-10T05:16:04;31.70;;;11.60;;
422;SDS011;198;48.752;9.180;2024-01-10T05:18:30;31.50;;;10.90;;
422;SDS011;198;48.752;9.180;2024-01-10T05:20:55;30.63;;;11.57;;
422;SDS011;198;48.752;9.180;2024-01-10T05:23:22;26.13;;;12.10;;
422;SDS011;198;48.752;9.180;2024-01-10T05:25:48;46.33;;;11.90;;
422;SDS011;198;48.752;9.180;2024-01-10T05:28:13;46.60;;;11.63;;
422;SDS011;198;48.752;9.180;2024-01-10T05:30:39;31.50;;;11.20;;
422;SDS011;198;48.752;9.180;2024-01-10T05:33:04;29.67;;;11.00;;
422;SDS011;198;48.752;9.180;2024-01-10T05:35:30;36.57;;;12.47;;
422;SDS011;198;48.752;9.180;2024-01-10T05:37:56;37.83;;;12.07;;
422;SDS011;198;48.752;9.180;2024-01-10T05:40:21;30.43;;;11.87;;
422;SDS011;198;48.752;9.180;2024-01-10T05:42:47;30.63;;;11.13;;
422;SDS011;198;48.752;9.180;2024-01-10T05:45:12;38.50;;;11.70;;
422;SDS011;198;48.752;9.180;2024-01-10T05:47:38;36.83;;;12.80;;
422;SDS011;198;48.752;9.180;2024-01-10T05:50:03;33.33;;;12.17;;
422;SDS011;198;48.752;9.180;2024-01-10T05:52:31;30.10;;;10.20;;
422;SDS011;198;48.752;9.180;2024-01-10T05:54:57;32.13;;;11.60;;
422;SDS011;198;48.752;9.180;2024-01-10T05:57:22;32.70;;;12.40;;
422;SDS011;198;48.752;9.180;2024-01-10T05:59:48;29.37;;;11.53;;
422;SDS011;198;48.752;9.180;2024-01-10T06:02:13;28.13;;;11.43;;
422;SDS011;198;48.752;9.180;2024-01-10T06:04:41;33.50;;;11.90;;
422;SDS011;198;48.752;9.180;2024-01-10T06:07:07;30.20;;;10.90;;
422;SDS011;198;48.752;9.180;2024-01-10T06:09:32;29.37;;;11.67;;
422;SDS011;198;48.752;9.180;2024-01-10T06:11:58;32.33;;;11.60;;
422;SDS011;198;48.752;9.180;2024-01-10T06:14:23;37.47;;;13.00;;
422;SDS011;198;48.752;9.180;2024-01-10T06:16:49;53.43;;;11.63;;
422;SDS011;198;48.752;9.180;2024-01-10T06:19:14;27.33;;;10.60;;
422;SDS011;198;48.752;9.180;2024-01-10T06:21:40;25.87;;;10.33;;
422;SDS011;198;48.752;9.180;2024-01-10T06:24:05;31.73;;;10.73;;
422;SDS011;198;48.752;9.180;2024-01-10T06:26:31;29.50;;;11.90;;
422;SDS011;198;48.752;9.180;2024-01-10T06:28:56;31.03;;;12.20;;
422;SDS011;198;48.752;9.180;2024-01-10T06:31:22;54.73;;;15.57;;
422;SDS011;198;48.752;9.180;2024-01-10T06:33:48;45.20;;;14.70;;
422;SDS011;198;48.752;9.180;2024-01-10T06:36:14;36.97;;;13.30;;
422;SDS011;198;48.752;9.180;2024-01-10T06:38:39;42.73;;;11.70;;
422;SDS011;198;48.752;9.180;2024-01-10T06:41:08;33.67;;;11.10;;
422;SDS011;198;48.752;9.180;2024-01-10T06:43:34;33.13;;;12.70;;
422;SDS011;198;48.752;9.180;2024-01-10T06:46:01;30.23;;;11.23;;
422;SDS011;198;48.752;9.180;2024-01-10T06:48:28;30.10;;;10.67;;
422;SDS011;198;48.752;9.180;2024-01-10T06:50:54;43.63;;;13.40;;
422;SDS011;198;48.752;9.180;2024-01-10T06:53:20;29.53;;;12.23;;
422;SDS011;198;48.752;9.180;2024-01-10T06:55:46;43.83;;;12.00;;
422;SDS011;198;48.752;9.180;2024-01-10T06:58:11;29.13;;;12.07;;
422;SDS011;198;48.752;9.180;2024-01-10T07:00:37;38.03;;;12.13;;
422;SDS011;198;48.752;9.180;2024-01-10T07:03:03;33.73;;;12.50;;
422;SDS011;198;48.752;9.180;2024-01-10T07:05:29;36.50;;;11.80;;
422;SDS011;198;48.752;9.180;2024-01-10T07:07:56;28.60;;;11.50;;
422;SDS011;198;48.752;9.180;2024-01-10T07:10:22;47.30;;;13.23;;
422;SDS011;198;48.752;9.180;2024-01-10T07:12:51;33.27;;;13.67;;
422;SDS011;198;48.752;9.180;2024-01-10T07:15:16;32.23;;;12.00;;
422;SDS011;198;48.752;9.180;2024-01-10T07:17:42;35.53;;;13.30;;
422;SDS011;198;48.752;9.180;2024-01-10T07:20:08;31.83;;;13.20;;
422;SDS011;198;48.752;9.180;2024-01-10T07:22:36;35.63;;;13.13;;
422;SDS011;198;48.752;9.180;2024-01-10T07:25:04;35.10;;;11.33;;
422;SDS011;198;48.752;9.180;2024-01-10T07:27:31;31.80;;;12.50;;
422;SDS011;198;48.752;9.180;2024-01-10T07:29:56;39.97;;;13.17;;
422;SDS011;198;48.752;9.180;2024-01-10T07:32:22;33.10;;;12.60;;
422;SDS011;198;48.752;9.180;2024-01-10T07:34:48;40.50;;;12.60;;
422;SDS011;198;48.752;9.180;2024-01-10T07:37:13;34.93;;;11.93;;
422;SDS011;198;48.752;9.180;2024-01-10T07:39:41;47.33;;;14.87;;
422;SDS011;198;48.752;9.180;2024-01-10T07:42:07;33.43;;;13.47;;
422;SDS011;198;48.752;9.180;2024-01-10T07:44:32;38.13;;;12.50;;
422;SDS011;198;48.752;9.180;2024-01-10T07:46:58;39.57;;;12.23;;
422;SDS011;198;48.752;9.180;2024-01-10T07:49:23;31.13;;;11.93;;
422;SDS011;198;48.752;9.180;2024-01-10T07:51:49;37.87;;;12.43;;
422;SDS011;198;48.752;9.180;2024-01-10T07:54:15;33.97;;;12.30;;
422;SDS011;198;48.752;9.180;2024-01-10T07:56:40;40.47;;;15.27;;
422;SDS011;198;48.752;9.180;2024-01-10T07:59:06;35.90;;;12.60;;
422;SDS011;198;48.752;9.180;2024-01-10T08:01:32;43.10;;;12.00;;
422;SDS011;198;48.752;9.180;2024-01-10T08:03:57;49.40;;;13.23;;
422;SDS011;198;48.752;9.180;2024-01-10T08:06:23;36.37;;;12.27;;
422;SDS011;198;48.752;9.180;2024-01-10T08:08:49;45.13;;;14.60;;
422;SDS011;198;48.752;9.180;2024-01-10T08:11:14;35.80;;;12.80;;
422;SDS011;198;48.752;9.180;2024-01-10T08:13:41;39.33;;;12.93;;
422;SDS011;198;48.752;9.180;2024-01-10T08:16:06;38.70;;;14.00;;
422;SDS011;198;48.752;9.180;2024-01-10T08:18:33;39.57;;;14.50;;
422;SDS011;198;48.752;9.180;2024-01-10T08:20:59;38.03;;;13.70;;
422;SDS011;198;48.752;9.180;2024-01-10T08:23:25;46.67;;;15.13;;
422;SDS011;198;48.752;9.180;2024-01-10T08:25:50;33.73;;;13.30;;
422;SDS011;198;48.752;9.180;2024-01-10T08:28:16;37.00;;;13.03;;
422;SDS011;198;48.752;9.180;2024-01-10T08:30:41;45.07;;;14.67;;
422;SDS011;198;48.752;9.180;2024-01-10T08:33:07;35.27;;;14.33;;
422;SDS011;198;48.752;9.180;2024-01-10T08:35:32;40.57;;;13.60;;
422;SDS011;198;48.752;9.180;2024-01-10T08:37:58;35.50;;;13.70;;
422;SDS011;198;48.752;9.180;2024-01-10T08:40:23;40.87;;;14.27;;
422;SDS011;198;48.752;9.180;2024-01-10T08:42:50;36.03;;;14.20;;
422;SDS011;198;48.752;9.180;2024-01-10T08:45:17;38.80;;;14.10;;
422;SDS011;198;48.752;9.180;2024-01-10T08:47:42;38.77;;;13.47;;
422;SDS011;198;48.752;9.180;2024-01-10T08:50:08;33.93;;;13.30;;
422;SDS011;198;48.752;9.180;2024-01-10T08:52:35;37.67;;;13.90;;
422;SDS011;198;48.752;9.180;2024-01-10T08:55:04;40.47;;;14.60;;
422;SDS011;198;48.752;9.180;2024-01-10T08:57:30;30.00;;;12.30;;
422;SDS011;198;48.752;9.180;2024-01-10T08:59:56;38.00;;;13.50;;
422;SDS011;198;48.752;9.180;2024-01-10T09:02:22;36.80;;;15.10;;
422;SDS011;198;48.752;9.180;2024-01-10T09:04:48;36.10;;;13.80;;
422;SDS011;198;48.752;9.180;2024-01-10T09:07:14;45.47;;;15.40;;
422;SDS011;198;48.752;9.180;2024-01-10T09:09:40;37.10;;;14.30;;
422;SDS011;198;48.752;9.180;2024-01-10T09:12:07;32.90;;;15.30;;
422;SDS011;198;48.752;9.180;2024-01-10T09:14:32;42.70;;;14.80;;
422;SDS011;198;48.752;9.180;2024-01-10T09:16:58;37.73;;;14.77;;
422;SDS011;198;48.752;9.180;2024-01-10T09:19:27;33.63;;;14.00;;
422;SDS011;198;48.752;9.180;2024-01-10T09:21:53;39.57;;;15.90;;
422;SDS011;198;48.752;9.180;2024-01-10T09:24:19;36.07;;;14.97;;
422;SDS011;198;48.752;9.180;2024-01-10T09:26:44;40.43;;;16.23;;
422;SDS011;198;48.752;9.180;2024-01-10T09:29:10;46.67;;;15.07;;
422;SDS011;198;48.752;9.180;2024-01-10T09:31:35;37.37;;;14.87;;
422;SDS011;198;48.752;9.180;2024-01-10T09:34:01;38.57;;;15.60;;
422;SDS011;198;48.752;9.180;2024-01-10T09:36:26;34.13;;;15.27;;
422;SDS011;198;48.752;9.180;2024-01-10T09:38:52;35.97;;;15.00;;
422;SDS011;198;48.752;9.180;2024-01-10T09:41:18;32.87;;;14.47;;
422;SDS011;198;48.752;9.180;2024-01-10T09:43:44;32.73;;;14.40;;
422;SDS011;198;48.752;9.180;2024-01-10T09:46:10;37.83;;;14.77;;
422;SDS011;198;48.752;9.180;2024-01-10T09:48:36;32.00;;;13.13;;
422;SDS011;198;48.752;9.180;2024-01-10T09:51:02;26.13;;;12.73;;
422;SDS011;198;48.752;9.180;2024-01-10T09:53:28;38.67;;;15.57;;
422;SDS011;198;48.752;9.180;2024-01-10T09:56:00;37.30;;;15.60;;
422;SDS011;198;48.752;9.180;2024-01-10T09:58:29;35.00;;;15.27;;
422;SDS011;198;48.752;9.180;2024-01-10T10:00:55;42.23;;;17.33;;
422;SDS011;198;48.752;9.180;2024-01-10T10:03:21;36.83;;;15.30;;
422;SDS011;198;48.752;9.180;2024-01-10T10:05:47;36.33;;;15.27;;
422;SDS011;198;48.752;9.180;2024-01-10T10:08:13;34.20;;;15.33;;
422;SDS011;198;48.752;9.180;2024-01-10T10:10:50;34.57;;;16.90;;
422;SDS011;198;48.752;9.180;2024-01-10T10:13:27;33.00;;;15.30;;
422;SDS011;198;48.752;9.180;2024-01-10T10:16:01;40.40;;;16.60;;
422;SDS011;198;48.752;9.180;2024-01-10T10:18:28;45.03;;;16.77;;
422;SDS011;198;48.752;9.180;2024-01-10T10:21:54;43.00;;;18.17;;
422;SDS011;198;48.752;9.180;2024-01-10T10:24:01;43.47;;;16.43;;
422;SDS011;198;48.752;9.180;2024-01-10T10:26:28;34.40;;;14.87;;
422;SDS011;198;48.752;9.180;2024-01-10T10:28:58;42.13;;;17.77;;
422;SDS011;198;48.752;9.180;2024-01-10T10:31:24;36.07;;;16.20;;
422;SDS011;198;48.752;9.180;2024-01-10T10:33:50;44.00;;;18.27;;
422;SDS011;198;48.752;9.180;2024-01-10T10:36:16;43.17;;;17.17;;
422;SDS011;198;48.752;9.180;2024-01-10T10:38:42;40.70;;;17.57;;
422;SDS011;198;48.752;9.180;2024-01-10T10:41:08;46.43;;;18.40;;
422;SDS011;198;48.752;9.180;2024-01-10T10:43:37;39.10;;;17.00;;
422;SDS011;198;48.752;9.180;2024-01-10T10:46:04;42.33;;;16.27;;
422;SDS011;198;48.752;9.180;2024-01-10T10:48:41;42.10;;;16.30;;
422;SDS011;198;48.752;9.180;2024-01-10T10:51:11;48.50;;;17.00;;
422;SDS011;198;48.752;9.180;2024-01-10T10:53:41;38.23;;;17.33;;
422;SDS011;198;48.752;9.180;2024-01-10T10:56:10;40.53;;;15.87;;
422;SDS011;198;48.752;9.180;2024-01-10T10:58:41;48.50;;;17.53;;
422;SDS011;198;48.752;9.180;2024-01-10T11:01:08;48.40;;;17.07;;
422;SDS011;198;48.752;9.180;2024-01-10T11:03:36;50.73;;;18.17;;
422;SDS011;198;48.752;9.180;2024-01-10T11:06:03;47.00;;;18.80;;
422;SDS011;198;48.752;9.180;2024-01-10T11:08:36;53.10;;;18.70;;
422;SDS011;198;48.752;9.180;2024-01-10T11:11:05;36.60;;;15.43;;
422;SDS011;198;48.752;9.180;2024-01-10T11:14:01;43.97;;;17.73;;
422;SDS011;198;48.752;9.180;2024-01-10T11:22:17;46.03;;;17.20;;
422;SDS011;198;48.752;9.180;2024-01-10T11:24:56;45.03;;;17.67;;
422;SDS011;198;48.752;9.180;2024-01-10T11:27:22;42.43;;;17.97;;
422;SDS011;198;48.752;9.180;2024-01-10T11:29:48;40.67;;;17.93;;
422;SDS011;198;48.752;9.180;2024-01-10T11:32:14;40.53;;;16.93;;
422;SDS011;198;48.752;9.180;2024-01-10T11:34:59;49.77;;;18.77;;
422;SDS011;198;48.752;9.180;2024-01-10T11:37:43;39.17;;;16.80;;
422;SDS011;198;48.752;9.180;2024-01-10T11:40:09;41.30;;;18.40;;
422;SDS011;198;48.752;9.180;2024-01-10T11:42:46;54.23;;;21.03;;
422;SDS011;198;48.752;9.180;2024-01-10T11:47:59;38.47;;;17.50;;
422;SDS011;198;48.752;9.180;2024-01-10T11:50:24;35.90;;;17.23;;
422;SDS011;198;48.752;9.180;2024-01-10T11:52:54;44.83;;;20.47;;
422;SDS011;198;48.752;9.180;2024-01-10T11:58:19;48.80;;;19.43;;
422;SDS011;198;48.752;9.180;2024-01-10T12:00:48;43.40;;;17.90;;
422;SDS011;198;48.752;9.180;2024-01-10T12:03:14;42.70;;;19.87;;
422;SDS011;198;48.752;9.180;2024-01-10T12:05:40;49.37;;;20.47;;
422;SDS011;198;48.752;9.180;2024-01-10T12:08:07;48.70;;;19.43;;
422;SDS011;198;48.752;9.180;2024-01-10T12:10:33;48.87;;;19.13;;
422;SDS011;198;48.752;9.180;2024-01-10T12:13:01;49.50;;;19.63;;
422;SDS011;198;48.752;9.180;2024-01-10T12:15:28;50.90;;;20.17;;
422;SDS011;198;48.752;9.180;2024-01-10T12:17:54;38.90;;;17.87;;
422;SDS011;198;48.752;9.180;2024-01-10T12:20:20;43.00;;;17.60;;
422;SDS011;198;48.752;9.180;2024-01-10T12:22:45;39.93;;;18.17;;
422;SDS011;198;48.752;9.180;2024-01-10T12:25:11;34.57;;;15.93;;
422;SDS011;198;48.752;9.180;2024-01-10T12:27:37;41.90;;;18.60;;
422;SDS011;198;48.752;9.180;2024-01-10T12:30:02;42.93;;;18.77;;
422;SDS011;198;48.752;9.180;2024-01-10T12:32:29;39.57;;;18.90;;
422;SDS011;198;48.752;9.180;2024-01-10T12:34:59;43.63;;;19.53;;
422;SDS011;198;48.752;9.180;2024-01-10T12:37:29;42.90;;;18.43;;
422;SDS011;198;48.752;9.180;2024-01-10T12:39:55;43.13;;;19.50;;
422;SDS011;198;48.752;9.180;2024-01-10T12:42:21;45.00;;;18.30;;
422;SDS011;198;48.752;9.180;2024-01-10T12:44:47;43.37;;;17.87;;
422;SDS011;198;48.752;9.180;2024-01-10T12:47:17;43.50;;;18.47;;
422;SDS011;198;48.752;9.180;2024-01-10T12:49:44;40.33;;;17.47;;
422;SDS011;198;48.752;9.180;2024-01-10T12:52:10;35.60;;;16.10;;
422;SDS011;198;48.752;9.180;2024-01-10T12:54:38;39.80;;;17.77;;
422;SDS011;198;48.752;9.180;2024-01-10T12:57:04;42.23;;;17.20;;
422;SDS011;198;48.752;9.180;2024-01-10T12:59:30;40.43;;;16.03;;
422;SDS011;198;48.752;9.180;2024-01-10T13:01:55;32.93;;;15.47;;
422;SDS011;198;48.752;9.180;2024-01-10T13:04:22;32.80;;;14.80;;
422;SDS011;198;48.752;9.180;2024-01-10T13:06:47;37.77;;;17.07;;
422;SDS011;198;48.752;9.180;2024-01-10T13:09:13;39.07;;;16.90;;
422;SDS011;198;48.752;9.180;2024-01-10T13:11:38;32.70;;;15.33;;
422;SDS011;198;48.752;9.180;2024-01-10T13:14:04;37.87;;;18.07;;
422;SDS011;198;48.752;9.180;2024-01-10T13:16:29;41.70;;;17.87;;
422;SDS011;198;48.752;9.180;2024-01-10T13:18:55;35.53;;;15.63;;
422;SDS011;198;48.752;9.180;2024-01-10T13:21:22;36.00;;;16.07;;
422;SDS011;198;48.752;9.180;2024-01-10T13:23:48;36.00;;;13.60;;
422;SDS011;198;48.752;9.180;2024-01-10T13:26:13;34.93;;;12.90;;
422;SDS011;198;48.752;9.180;2024-01-10T13:28:39;31.90;;;13.40;;
422;SDS011;198;48.752;9.180;2024-01-10T13:31:05;31.67;;;12.67;;
422;SDS011;198;48.752;9.180;2024-01-10T13:33:31;21.47;;;10.83;;
422;SDS011;198;48.752;9.180;2024-01-10T13:35:56;29.10;;;13.67;;
422;SDS011;198;48.752;9.180;2024-01-10T13:38:22;26.57;;;11.40;;
422;SDS011;198;48.752;9.180;2024-01-10T13:40:49;30.70;;;14.73;;
422;SDS011;198;48.752;9.180;2024-01-10T13:43:15;30.13;;;14.10;;
422;SDS011;198;48.752;9.180;2024-01-10T13:45:40;35.80;;;16.33;;
422;SDS011;198;48.752;9.180;2024-01-10T13:48:06;34.43;;;15.33;;
422;SDS011;198;48.752;9.180;2024-01-10T13:50:32;25.93;;;12.57;;
422;SDS011;198;48.752;9.180;2024-01-10T13:52:58;29.80;;;15.30;;
422;SDS011;198;48.752;9.180;2024-01-10T13:55:23;33.93;;;15.43;;
422;SDS011;198;48.752;9.180;2024-01-10T13:57:49;28.47;;;13.97;;
422;SDS011;198;48.752;9.180;2024-01-10T14:00:15;31.33;;;15.57;;
422;SDS011;198;48.752;9.180;2024-01-10T14:02:41;29.67;;;15.90;;
422;SDS011;198;48.752;9.180;2024-01-10T14:05:07;28.67;;;15.20;;
422;SDS011;198;48.752;9.180;2024-01-10T14:07:34;27.53;;;14.90;;
422;SDS011;198;48.752;9.180;2024-01-10T14:10:00;22.17;;;13.20;;
422;SDS011;198;48.752;9.180;2024-01-10T14:12:27;35.13;;;16.10;;
422;SDS011;198;48.752;9.180;2024-01-10T14:14:54;25.20;;;13.93;;
422;SDS011;198;48.752;9.180;2024-01-10T14:17:20;25.90;;;12.50;;
422;SDS011;198;48.752;9.180;2024-01-10T14:19:47;31.97;;;16.27;;
422;SDS011;198;48.752;9.180;2024-01-10T14:22:14;33.73;;;17.30;;
422;SDS011;198;48.752;9.180;2024-01-10T14:24:42;38.70;;;17.63;;
422;SDS011;198;48.752;9.180;2024-01-10T14:27:08;35.57;;;17.10;;
422;SDS011;198;48.752;9.180;2024-01-10T14:29:34;33.37;;;16.70;;
422;SDS011;198;48.752;9.180;2024-01-10T14:31:59;38.80;;;17.57;;
422;SDS011;198;48.752;9.180;2024-01-10T14:34:25;42.00;;;18.40;;
422;SDS011;198;48.752;9.180;2024-01-10T14:36:50;37.43;;;16.30;;
422;SDS011;198;48.752;9.180;2024-01-10T14:39:16;38.07;;;15.60;;
422;SDS011;198;48.752;9.180;2024-01-10T14:41:43;31.03;;;15.83;;
422;SDS011;198;48.752;9.180;2024-01-10T14:44:09;36.57;;;16.10;;
422;SDS011;198;48.752;9.180;2024-01-10T14:46:35;34.57;;;15.73;;
422;SDS011;198;48.752;9.180;2024-01-10T14:49:01;46.67;;;17.50;;
422;SDS011;198;48.752;9.180;2024-01-10T14:51:26;34.73;;;14.43;;
422;SDS011;198;48.752;9.180;2024-01-10T14:53:52;41.57;;;15.30;;
422;SDS011;198;48.752;9.180;2024-01-10T14:56:18;47.97;;;15.83;;
422;SDS011;198;48.752;9.180;2024-01-10T14:58:43;51.27;;;19.70;;
422;SDS011;198;48.752;9.180;2024-01-10T15:01:09;52.80;;;20.20;;
422;SDS011;198;48.752;9.180;2024-01-10T15:03:35;48.83;;;18.90;;
422;SDS011;198;48.752;9.180;2024-01-10T15:06:01;46.47;;;16.60;;
422;SDS011;198;48.752;9.180;2024-01-10T15:08:28;49.20;;;16.73;;
422;SDS011;198;48.752;9.180;2024-01-10T15:10:54;56.90;;;19.60;;
422;SDS011;198;48.752;9.180;2024-01-10T15:13:19;49.83;;;18.17;;
422;SDS011;198;48.752;9.180;2024-01-10T15:15:45;51.17;;;19.50;;
422;SDS011;198;48.752;9.180;2024-01-10T15:18:11;51.00;;;18.40;;
422;SDS011;198;48.752;9.180;2024-01-10T15:20:36;66.60;;;21.67;;
422;SDS011;198;48.752;9.180;2024-01-10T15:23:02;51.63;;;18.57;;